Galati, Romania

5:00 PM EEST on October 24, 2014 (GMT +0300)
Galati | Change Station
CLOSE
Current Station
Personal Weather Station
Location: Gala%u021Bi, GL
Elevation: 135 ft
Nearby Weather Stations

Elev 135 ft 45.43 °N, 28.04 °E | Updated 5 seconds ago

Light Rain
Light Rain
36.7 °F
Feels Like 37 °F
N
2.6
Wind Variable Wind from ENE
Gusts 9.2 mph

Today
High -- | Low -- °F
--% Chance of Precip.
Yesterday
High -- | Low -- °F
Precip. -- in
7:35 AM 6:07 PM
New Moon, 0% visible
Pressure 30.12 in
Visibility -9999.0 miles
Clouds Few 400 ft
Overcast 600 ft
Windchill 37 °F
Dew Point 35 °F
Humidity 95%
Rainfall 0.91 in
Snow Depth Not available.
UV 0 out of 12
Pollen Not available.
Air Quality Not available.
Flu Activity Not available.
METAR LRTC 241330Z AUTO 35021KT 3600 -RA FEW004 OVC006 05/04 Q1020

More Conditions Fewer Conditions

Pressure 30.12 in
Visibility -9999.0 miles
Clouds Few 400 ft
Overcast 600 ft
Windchill 37 °F
Dew Point 35 °F
Humidity 95%
Rainfall 0.91 in
Snow Depth Not available.
UV 0 out of 12
Pollen Not available.
Air Quality Not available.
Flu Activity Not available.
METAR LRTC 241330Z AUTO 35021KT 3600 -RA FEW004 OVC006 05/04 Q1020

More Conditions Fewer Conditions

10-Day Weather Forecast

Almanac

Astronomy

Oct. 24, 2014 Rise Set
Actual Time 7:35 AM EEST 6:07 PM EEST
Civil Twilight 7:05 AM EEST 6:37 PM EEST
Nautical Twilight 6:30 AM EEST 7:12 PM EEST
Astronomical Twilight 5:56 AM EEST 7:46 PM EEST
Moon 7:56 AM EEST 6:33 PM EEST
Length of Visible Light 11h 32m
Length of Day
10h 31m
Tomorrow will be 2m 58s shorter.
New Moon, 0% of the Moon is Illuminated
Today
New Moon
Oct 30
First Quarter
Nov 6
Full
Nov 14
Last Quarter
Nov 22
New

Yesterday's Extremes

Country Highs Country Lows

Community

WunderPhotos

Upload Photos

1,764,564 photos uploaded!

WunderBlogs® & News

By Dr. Jeff Masters
Director of Meteorology, Weather Underground
By Kari Strenfel
Meteorologist, Weather Underground
By Christopher C. Burt
Weather Historian, Weather Underground
October 24, 2014
October 24, 2014
October 24, 2014

Nearby

Snow Depth

Not available.

Earthquake Activity

City Distance Mag. Time & Date
No recent earthquake activity has been reported nearby.
Minimum magnitude displayed is 2.5.

Coastal Water Temperatures

Place Temperature
No Stations Reporting

Nearby Weather Stations